Time,TemperatureF,DewpointF,PressureIn,WindDirection,WindDirectionDegrees,WindSpeedMPH,WindSpeedGustMPH,Humidity,HourlyPrecipIn,Conditions,Clouds,dailyrainin,SoftwareType,DateUTC
2013-11-30 00:08:00,28.4,4.2,30.76,East,92,3.0,8.0,35,0.00,CLR,,0.00,WeatherDisplay:10.37,2013-11-30 05:08:00,
2013-11-30 00:18:00,28.2,4.0,30.76,East,92,2.0,6.0,35,0.00,CLR,,0.00,WeatherDisplay:10.37,2013-11-30 05:18:00,
2013-11-30 00:28:00,28.2,4.0,30.76,ESE,107,3.0,6.0,35,0.00,CLR,,0.00,WeatherDisplay:10.37,2013-11-30 05:28:00,
2013-11-30 00:38:00,28.0,3.9,30.76,East,88,2.0,6.0,35,0.00,CLR,,0.00,WeatherDisplay:10.37,2013-11-30 05:38:00,
2013-11-30 00:48:00,27.7,3.5,30.76,East,94,2.0,6.0,35,0.00,CLR,,0.00,WeatherDisplay:10.37,2013-11-30 05:48:00,
2013-11-30 00:58:00,27.9,3.7,30.76,East,84,3.0,6.0,35,0.00,CLR,,0.00,WeatherDisplay:10.37,2013-11-30 05:58:00,
2013-11-30 01:08:00,28.0,3.2,30.76,East,87,3.0,6.0,34,0.00,CLR,,0.00,WeatherDisplay:10.37,2013-11-30 06:08:00,
2013-11-30 01:18:00,28.0,3.2,30.76,East,96,3.0,6.0,34,0.00,CLR,,0.00,WeatherDisplay:10.37,2013-11-30 06:18:00,
2013-11-30 01:28:00,28.0,2.6,30.76,East,93,3.0,6.0,33,0.00,CLR,,0.00,WeatherDisplay:10.37,2013-11-30 06:28:00,
2013-11-30 01:38:00,28.0,2.6,30.76,East,88,3.0,6.0,33,0.00,CLR,,0.00,WeatherDisplay:10.37,2013-11-30 06:38:00,
2013-11-30 01:48:00,28.0,2.6,30.76,East,98,3.0,6.0,33,0.00,CLR,,0.00,WeatherDisplay:10.37,2013-11-30 06:48:00,
2013-11-30 01:58:00,27.9,1.8,30.76,East,101,1.0,4.0,32,0.00,CLR,,0.00,WeatherDisplay:10.37,2013-11-30 06:58:00,
2013-11-30 02:08:00,27.1,1.1,30.76,NE,48,0.0,4.0,32,0.00,CLR,,0.00,WeatherDisplay:10.37,2013-11-30 07:08:00,
2013-11-30 02:18:00,26.6,1.3,30.76,ENE,78,0.0,0.0,33,0.00,CLR,,0.00,WeatherDisplay:10.37,2013-11-30 07:18:00,
2013-11-30 02:28:00,25.6,0.4,30.76,North,10,0.0,0.0,33,0.00,CLR,,0.00,WeatherDisplay:10.37,2013-11-30 07:28:00,
2013-11-30 02:38:00,24.6,-0.5,30.76,North,0,0.0,0.0,33,0.00,CLR,,0.00,WeatherDisplay:10.37,2013-11-30 07:38:00,
2013-11-30 02:48:00,23.4,-1.6,30.76,North,0,0.0,0.0,33,0.00,CLR,,0.00,WeatherDisplay:10.37,2013-11-30 07:48:00,
2013-11-30 02:58:00,22.6,-1.6,30.76,North,0,0.0,0.0,34,0.00,CLR,,0.00,WeatherDisplay:10.37,2013-11-30 07:58:00,
2013-11-30 03:08:00,22.1,-2.0,30.76,SW,234,0.0,0.0,34,0.00,CLR,,0.00,WeatherDisplay:10.37,2013-11-30 08:08:00,
2013-11-30 03:18:00,21.6,-2.5,30.76,SW,224,0.0,0.0,34,0.00,CLR,,0.00,WeatherDisplay:10.37,2013-11-30 08:18:00,
2013-11-30 03:28:00,21.4,-1.5,30.76,SW,223,0.0,0.0,36,0.00,CLR,,0.00,WeatherDisplay:10.37,2013-11-30 08:28:00,
2013-11-30 03:38:00,20.8,-1.4,30.73,SW,223,0.0,0.0,37,0.00,CLR,,0.00,WeatherDisplay:10.37,2013-11-30 08:38:00,
2013-11-30 03:48:00,20.7,-0.4,30.73,SSE,158,2.0,4.0,39,0.00,CLR,,0.00,WeatherDisplay:10.37,2013-11-30 08:48:00,
2013-11-30 03:58:00,20.7,0.6,30.73,SSE,153,2.0,4.0,41,0.00,CLR,,0.00,WeatherDisplay:10.37,2013-11-30 08:58:00,
2013-11-30 04:08:00,20.8,1.8,30.73,SSE,153,2.0,4.0,43,0.00,CLR,,0.00,WeatherDisplay:10.37,2013-11-30 09:08:00,
2013-11-30 04:18:00,20.7,1.7,30.73,SSE,153,0.0,0.0,43,0.00,CLR,,0.00,WeatherDisplay:10.37,2013-11-30 09:18:00,
2013-11-30 04:28:00,20.7,2.2,30.73,SSE,153,0.0,3.0,44,0.00,CLR,,0.00,WeatherDisplay:10.37,2013-11-30 09:28:00,
2013-11-30 04:38:00,20.7,2.2,30.73,SSE,153,0.0,4.0,44,0.00,CLR,,0.00,WeatherDisplay:10.37,2013-11-30 09:38:00,
2013-11-30 04:48:00,21.0,3.0,30.73,SE,143,2.0,4.0,45,0.00,CLR,,0.00,WeatherDisplay:10.37,2013-11-30 09:48:00,
2013-11-30 04:58:00,20.8,2.8,30.73,East,89,0.0,4.0,45,0.00,CLR,,0.00,WeatherDisplay:10.37,2013-11-30 09:58:00,
2013-11-30 05:08:00,20.7,2.6,30.73,East,89,0.0,2.0,45,0.00,CLR,,0.00,WeatherDisplay:10.37,2013-11-30 10:08:00,
2013-11-30 05:18:00,20.5,2.9,30.73,East,89,0.0,0.0,46,0.00,CLR,,0.00,WeatherDisplay:10.37,2013-11-30 10:18:00,
2013-11-30 05:28:00,20.5,2.9,30.73,East,89,0.0,2.0,46,0.00,CLR,,0.00,WeatherDisplay:10.37,2013-11-30 10:28:00,
2013-11-30 05:38:00,20.1,2.6,30.73,SE,144,0.0,0.0,46,0.00,CLR,,0.00,WeatherDisplay:10.37,2013-11-30 10:38:00,
2013-11-30 05:48:00,19.8,2.3,30.73,SSE,158,0.0,0.0,46,0.00,CLR,,0.00,WeatherDisplay:10.37,2013-11-30 10:48:00,
2013-11-30 05:58:00,19.6,2.1,30.76,SSE,158,0.0,0.0,46,0.00,CLR,,0.00,WeatherDisplay:10.37,2013-11-30 10:58:00,
2013-11-30 06:08:00,19.5,2.5,30.76,ESE,121,0.0,3.0,47,0.00,CLR,,0.00,WeatherDisplay:10.37,2013-11-30 11:08:00,
2013-11-30 06:18:00,19.6,2.6,30.76,East,89,0.0,0.0,47,0.00,CLR,,0.00,WeatherDisplay:10.37,2013-11-30 11:18:00,
2013-11-30 06:28:00,19.8,2.8,30.76,SSE,147,1.0,4.0,47,0.00,CLR,,0.00,WeatherDisplay:10.37,2013-11-30 11:28:00,
2013-11-30 06:38:00,20.5,3.9,30.76,SSE,166,1.0,5.0,48,0.00,CLR,,0.00,WeatherDisplay:10.37,2013-11-30 11:38:00,
2013-11-30 06:48:00,21.3,4.6,30.76,South,173,0.0,0.0,48,0.00,CLR,,0.00,WeatherDisplay:10.37,2013-11-30 11:48:00,
2013-11-30 06:58:00,22.6,6.2,30.76,SSE,163,2.0,4.0,49,0.00,CLR,,0.00,WeatherDisplay:10.37,2013-11-30 11:58:00,
2013-11-30 07:08:00,23.7,7.3,30.76,SW,215,1.0,4.0,49,0.00,CLR,,0.00,WeatherDisplay:10.37,2013-11-30 12:08:00,
2013-11-30 07:18:00,24.3,7.4,30.76,NW,315,1.0,4.0,48,0.00,CLR,,0.00,WeatherDisplay:10.37,2013-11-30 12:18:00,
2013-11-30 07:28:00,24.8,5.9,30.76,East,98,2.0,6.0,44,0.00,CLR,,0.00,WeatherDisplay:10.37,2013-11-30 12:28:00,
2013-11-30 07:38:00,25.2,5.8,30.76,WSW,248,1.0,4.0,43,0.00,CLR,,0.00,WeatherDisplay:10.37,2013-11-30 12:38:00,
2013-11-30 07:48:00,25.5,5.6,30.76,SE,142,1.0,4.0,42,0.00,CLR,,0.00,WeatherDisplay:10.37,2013-11-30 12:48:00,
2013-11-30 07:58:00,25.8,5.9,30.76,SE,146,0.0,5.0,42,0.00,CLR,,0.00,WeatherDisplay:10.37,2013-11-30 12:58:00,
2013-11-30 08:08:00,26.2,4.6,30.73,East,90,6.0,8.0,39,0.00,CLR,,0.00,WeatherDisplay:10.37,2013-11-30 13:08:00,
2013-11-30 08:18:00,26.6,3.2,30.73,East,101,6.0,8.0,36,0.00,CLR,,0.00,WeatherDisplay:10.37,2013-11-30 13:18:00,
2013-11-30 08:28:00,26.8,2.7,30.73,ESE,103,3.0,8.0,35,0.00,CLR,,0.00,WeatherDisplay:10.37,2013-11-30 13:28:00,
2013-11-30 08:38:00,27.1,1.8,30.73,ESE,116,6.0,8.0,33,0.00,CLR,,0.00,WeatherDisplay:10.37,2013-11-30 13:38:00,
2013-11-30 08:48:00,27.7,1.6,30.73,ESE,105,7.0,13.0,32,0.00,CLR,,0.00,WeatherDisplay:10.37,2013-11-30 13:48:00,
2013-11-30 08:58:00,28.0,1.9,30.73,ESE,111,7.0,12.0,32,0.00,CLR,,0.00,WeatherDisplay:10.37,2013-11-30 13:58:00,
2013-11-30 09:08:00,28.2,2.1,30.73,ESE,109,5.0,8.0,32,0.00,CLR,,0.00,WeatherDisplay:10.37,2013-11-30 14:08:00,
2013-11-30 09:18:00,28.4,2.2,30.73,ESE,110,6.0,11.0,32,0.00,CLR,,0.00,WeatherDisplay:10.37,2013-11-30 14:18:00,
2013-11-30 09:28:00,29.1,2.2,30.73,ESE,122,6.0,10.0,31,0.00,CLR,,0.00,WeatherDisplay:10.37,2013-11-30 14:28:00,
2013-11-30 09:38:00,28.9,2.0,30.73,ESE,110,6.0,11.0,31,0.00,CLR,,0.00,WeatherDisplay:10.37,2013-11-30 14:38:00,
2013-11-30 09:48:00,28.8,1.2,30.73,ESE,114,5.0,10.0,30,0.00,CLR,,0.00,WeatherDisplay:10.37,2013-11-30 14:48:00,
2013-11-30 09:58:00,28.9,-0.1,30.73,SE,127,7.0,12.0,28,0.00,CLR,,0.00,WeatherDisplay:10.37,2013-11-30 14:58:00,
2013-11-30 10:08:00,29.1,0.0,30.73,SE,127,7.0,12.0,28,0.00,CLR,,0.00,WeatherDisplay:10.37,2013-11-30 15:08:00,
2013-11-30 10:18:00,29.3,0.2,30.73,SE,129,7.0,10.0,28,0.00,CLR,,0.00,WeatherDisplay:10.37,2013-11-30 15:18:00,
2013-11-30 10:28:00,29.7,0.5,30.73,ESE,117,2.0,12.0,28,0.00,CLR,,0.00,WeatherDisplay:10.37,2013-11-30 15:28:00,
2013-11-30 10:38:00,30.0,0.8,30.73,SE,129,6.0,10.0,28,0.00,CLR,,0.00,WeatherDisplay:10.37,2013-11-30 15:38:00,
2013-11-30 10:48:00,30.4,1.1,30.73,SE,133,7.0,11.0,28,0.00,CLR,,0.00,WeatherDisplay:10.37,2013-11-30 15:48:00,
2013-11-30 10:58:00,30.9,3.0,30.73,ESE,113,5.0,9.0,30,0.00,CLR,,0.00,WeatherDisplay:10.37,2013-11-30 15:58:00,
2013-11-30 11:08:00,31.1,1.7,30.70,East,92,5.0,8.0,28,0.00,CLR,,0.00,WeatherDisplay:10.37,2013-11-30 16:08:00,
2013-11-30 11:18:00,31.5,3.5,30.70,ESE,109,6.0,8.0,30,0.00,CLR,,0.00,WeatherDisplay:10.37,2013-11-30 16:18:00,
2013-11-30 11:28:00,32.3,4.3,30.70,East,83,5.0,8.0,30,0.00,CLR,,0.00,WeatherDisplay:10.37,2013-11-30 16:28:00,
2013-11-30 11:38:00,32.5,4.5,30.67,East,96,5.0,9.0,30,0.00,CLR,,0.00,WeatherDisplay:10.37,2013-11-30 16:38:00,
2013-11-30 11:48:00,33.4,5.2,30.67,ESE,115,6.0,7.0,30,0.00,CLR,,0.00,WeatherDisplay:10.37,2013-11-30 16:48:00,
2013-11-30 11:58:00,34.0,5.7,30.67,SE,126,5.0,8.0,30,0.00,CLR,,0.00,WeatherDisplay:10.37,2013-11-30 16:58:00,
2013-11-30 12:08:00,34.5,3.9,30.67,SSE,152,5.0,8.0,27,0.00,CLR,,0.00,WeatherDisplay:10.37,2013-11-30 17:08:00,
2013-11-30 12:18:00,34.7,4.1,30.67,SSE,151,2.0,6.0,27,0.00,CLR,,0.00,WeatherDisplay:10.37,2013-11-30 17:18:00,
2013-11-30 12:28:00,35.2,4.5,30.67,SE,141,3.0,8.0,27,0.00,CLR,,0.00,WeatherDisplay:10.37,2013-11-30 17:28:00,
2013-11-30 12:38:00,35.6,4.8,30.67,SSE,151,3.0,6.0,27,0.00,CLR,,0.00,WeatherDisplay:10.37,2013-11-30 17:38:00,
2013-11-30 12:48:00,34.7,2.4,30.67,SSE,155,3.0,8.0,25,0.00,CLR,,0.00,WeatherDisplay:10.37,2013-11-30 17:48:00,
2013-11-30 12:58:00,34.2,1.9,30.64,SE,142,6.0,9.0,25,0.00,CLR,,0.00,WeatherDisplay:10.37,2013-11-30 17:58:00,
2013-11-30 13:08:00,33.8,4.1,30.64,SE,133,6.0,10.0,28,0.00,CLR,,0.00,WeatherDisplay:10.37,2013-11-30 18:08:00,
2013-11-30 13:18:00,33.4,3.8,30.64,SE,140,5.0,8.0,28,0.00,CLR,,0.00,WeatherDisplay:10.37,2013-11-30 18:18:00,
2013-11-30 13:28:00,33.8,4.1,30.64,SSE,152,5.0,9.0,28,0.00,CLR,,0.00,WeatherDisplay:10.37,2013-11-30 18:28:00,
2013-11-30 13:38:00,33.8,4.1,30.64,SE,144,6.0,8.0,28,0.00,CLR,,0.00,WeatherDisplay:10.37,2013-11-30 18:38:00,
2013-11-30 13:48:00,34.1,5.8,30.64,South,170,2.0,8.0,30,0.00,CLR,,0.00,WeatherDisplay:10.37,2013-11-30 18:48:00,
2013-11-30 13:58:00,34.0,3.4,30.61,SSE,156,5.0,9.0,27,0.00,CLR,,0.00,WeatherDisplay:10.37,2013-11-30 18:58:00,
2013-11-30 14:08:00,34.0,3.4,30.61,SSE,166,6.0,10.0,27,0.00,CLR,,0.00,WeatherDisplay:10.37,2013-11-30 19:08:00,
2013-11-30 14:18:00,34.0,5.7,30.61,SE,132,6.0,8.0,30,0.00,CLR,,0.00,WeatherDisplay:10.37,2013-11-30 19:18:00,
2013-11-30 14:28:00,34.0,5.7,30.61,SE,138,3.0,10.0,30,0.00,CLR,,0.00,WeatherDisplay:10.37,2013-11-30 19:28:00,
2013-11-30 14:38:00,33.8,4.8,30.58,SE,142,7.0,10.0,29,0.00,CLR,,0.00,WeatherDisplay:10.37,2013-11-30 19:38:00,
2013-11-30 14:48:00,33.6,5.4,30.58,SE,143,5.0,11.0,30,0.00,CLR,,0.00,WeatherDisplay:10.37,2013-11-30 19:48:00,
2013-11-30 14:58:00,33.4,5.3,30.58,SE,134,5.0,10.0,30,0.00,CLR,,0.00,WeatherDisplay:10.37,2013-11-30 19:58:00,
2013-11-30 15:08:00,33.4,5.3,30.58,SE,138,3.0,10.0,30,0.00,CLR,,0.00,WeatherDisplay:10.37,2013-11-30 20:08:00,
2013-11-30 15:18:00,33.4,5.3,30.58,SE,141,6.0,8.0,30,0.00,CLR,,0.00,WeatherDisplay:10.37,2013-11-30 20:18:00,
2013-11-30 15:28:00,33.4,6.0,30.58,SE,130,3.0,7.0,31,0.00,CLR,,0.00,WeatherDisplay:10.37,2013-11-30 20:28:00,
2013-11-30 15:38:00,33.4,6.0,30.55,SE,134,5.0,7.0,31,0.00,CLR,,0.00,WeatherDisplay:10.37,2013-11-30 20:38:00,
2013-11-30 15:48:00,33.4,6.0,30.55,SE,137,6.0,8.0,31,0.00,CLR,,0.00,WeatherDisplay:10.37,2013-11-30 20:48:00,
2013-11-30 15:58:00,33.4,6.0,30.55,SE,136,5.0,6.0,31,0.00,CLR,,0.00,WeatherDisplay:10.37,2013-11-30 20:58:00,
2013-11-30 16:08:00,33.4,6.0,30.55,SE,144,2.0,6.0,31,0.00,CLR,,0.00,WeatherDisplay:10.37,2013-11-30 21:08:00,
2013-11-30 16:18:00,33.4,6.0,30.55,SSE,155,3.0,6.0,31,0.00,CLR,,0.00,WeatherDisplay:10.37,2013-11-30 21:18:00,
2013-11-30 16:28:00,33.3,5.8,30.55,SSE,147,0.0,6.0,31,0.00,CLR,,0.00,WeatherDisplay:10.37,2013-11-30 21:28:00,
2013-11-30 16:38:00,33.3,5.8,30.55,SE,141,3.0,6.0,31,0.00,CLR,,0.00,WeatherDisplay:10.37,2013-11-30 21:38:00,
2013-11-30 16:48:00,33.3,5.8,30.55,SE,138,5.0,6.0,31,0.00,CLR,,0.00,WeatherDisplay:10.37,2013-11-30 21:48:00,
2013-11-30 16:58:00,33.1,5.7,30.55,SE,132,3.0,9.0,31,0.00,CLR,,0.00,WeatherDisplay:10.37,2013-11-30 21:58:00,
2013-11-30 17:08:00,33.1,5.7,30.52,SE,136,6.0,8.0,31,0.00,CLR,,0.00,WeatherDisplay:10.37,2013-11-30 22:08:00,
2013-11-30 17:18:00,33.1,5.7,30.52,SSE,158,3.0,8.0,31,0.00,CLR,,0.00,WeatherDisplay:10.37,2013-11-30 22:18:00,
2013-11-30 17:28:00,32.9,5.5,30.52,SSW,194,3.0,8.0,31,0.00,CLR,,0.00,WeatherDisplay:10.37,2013-11-30 22:28:00,
2013-11-30 17:38:00,32.9,5.5,30.52,SSW,196,5.0,8.0,31,0.00,CLR,,0.00,WeatherDisplay:10.37,2013-11-30 22:38:00,
2013-11-30 17:48:00,33.1,5.7,30.52,SSE,151,5.0,9.0,31,0.00,CLR,,0.00,WeatherDisplay:10.37,2013-11-30 22:48:00,
2013-11-30 17:58:00,32.9,5.6,30.52,ESE,103,7.0,10.0,31,0.00,CLR,,0.00,WeatherDisplay:10.37,2013-11-30 22:58:00,
2013-11-30 18:08:00,32.9,5.5,30.52,ESE,111,6.0,8.0,31,0.00,CLR,,0.00,WeatherDisplay:10.37,2013-11-30 23:08:00,
2013-11-30 18:18:00,32.9,5.5,30.52,SE,137,6.0,8.0,31,0.00,CLR,,0.00,WeatherDisplay:10.37,2013-11-30 23:18:00,
2013-11-30 18:28:00,32.9,5.5,30.52,SSE,158,5.0,9.0,31,0.00,CLR,,0.00,WeatherDisplay:10.37,2013-11-30 23:28:00,
2013-11-30 18:38:00,32.9,5.5,30.52,SSE,161,5.0,8.0,31,0.00,CLR,,0.00,WeatherDisplay:10.37,2013-11-30 23:38:00,
2013-11-30 18:48:00,32.7,5.4,30.52,South,180,5.0,7.0,31,0.00,CLR,,0.00,WeatherDisplay:10.37,2013-11-30 23:48:00,
2013-11-30 18:58:00,32.5,5.2,30.49,SE,139,6.0,9.0,31,0.00,CLR,,0.00,WeatherDisplay:10.37,2013-11-30 23:58:00,
2013-11-30 19:08:00,32.5,5.2,30.49,SSE,159,6.0,9.0,31,0.00,CLR,,0.00,WeatherDisplay:10.37,2013-12-01 00:08:00,
2013-11-30 19:18:00,32.5,5.2,30.49,ESE,111,6.0,8.0,31,0.00,CLR,,0.00,WeatherDisplay:10.37,2013-12-01 00:18:00,
2013-11-30 19:28:00,32.4,5.0,30.49,SE,125,5.0,8.0,31,0.00,CLR,,0.00,WeatherDisplay:10.37,2013-12-01 00:28:00,
2013-11-30 19:38:00,32.2,4.9,30.49,ESE,109,6.0,8.0,31,0.00,CLR,,0.00,WeatherDisplay:10.37,2013-12-01 00:38:00,
2013-11-30 19:48:00,32.2,4.9,30.49,ESE,115,7.0,10.0,31,0.00,CLR,,0.00,WeatherDisplay:10.37,2013-12-01 00:48:00,
2013-11-30 19:58:00,32.2,4.9,30.49,ESE,114,6.0,11.0,31,0.00,CLR,,0.00,WeatherDisplay:10.37,2013-12-01 00:58:00,
2013-11-30 20:08:00,32.0,4.7,30.49,ESE,107,6.0,8.0,31,0.00,CLR,,0.00,WeatherDisplay:10.37,2013-12-01 01:08:00,
2013-11-30 20:18:00,31.8,4.6,30.49,ESE,113,6.0,10.0,31,0.00,CLR,,0.00,WeatherDisplay:10.37,2013-12-01 01:18:00,
2013-11-30 20:28:00,31.8,4.6,30.49,ESE,103,5.0,8.0,31,0.00,CLR,,0.00,WeatherDisplay:10.37,2013-12-01 01:28:00,
2013-11-30 20:38:00,31.6,5.1,30.49,ESE,109,6.0,8.0,32,0.00,CLR,,0.00,WeatherDisplay:10.37,2013-12-01 01:38:00,
2013-11-30 20:48:00,31.8,5.3,30.49,ESE,121,6.0,8.0,32,0.00,CLR,,0.00,WeatherDisplay:10.37,2013-12-01 01:48:00,
2013-11-30 20:58:00,31.8,5.3,30.49,ESE,113,5.0,9.0,32,0.00,CLR,,0.00,WeatherDisplay:10.37,2013-12-01 01:58:00,
2013-11-30 21:08:00,31.5,4.9,30.46,ESE,109,6.0,8.0,32,0.00,CLR,,0.00,WeatherDisplay:10.37,2013-12-01 02:08:00,
2013-11-30 21:18:00,31.5,4.9,30.46,ESE,109,6.0,10.0,32,0.00,CLR,,0.00,WeatherDisplay:10.37,2013-12-01 02:18:00,
2013-11-30 21:28:00,31.4,5.5,30.46,ESE,102,6.0,7.0,33,0.00,CLR,,0.00,WeatherDisplay:10.37,2013-12-01 02:28:00,
2013-11-30 21:38:00,31.5,5.6,30.46,ESE,106,6.0,8.0,33,0.00,CLR,,0.00,WeatherDisplay:10.37,2013-12-01 02:38:00,
2013-11-30 21:48:00,31.8,5.9,30.46,ESE,103,6.0,9.0,33,0.00,CLR,,0.00,WeatherDisplay:10.37,2013-12-01 02:48:00,
2013-11-30 21:58:00,31.8,5.9,30.46,East,97,6.0,12.0,33,0.00,CLR,,0.00,WeatherDisplay:10.37,2013-12-01 02:58:00,
2013-11-30 22:08:00,31.6,5.8,30.46,East,100,6.0,8.0,33,0.00,CLR,,0.00,WeatherDisplay:10.37,2013-12-01 03:08:00,
2013-11-30 22:18:00,31.5,6.3,30.46,East,99,6.0,7.0,34,0.00,CLR,,0.00,WeatherDisplay:10.37,2013-12-01 03:18:00,
2013-11-30 22:28:00,31.3,6.1,30.46,ESE,116,5.0,7.0,34,0.00,CLR,,0.00,WeatherDisplay:10.37,2013-12-01 03:28:00,
2013-11-30 22:38:00,31.3,6.8,30.46,ESE,103,6.0,8.0,35,0.00,CLR,,0.00,WeatherDisplay:10.37,2013-12-01 03:38:00,
2013-11-30 22:48:00,31.5,6.9,30.46,East,99,6.0,8.0,35,0.00,CLR,,0.00,WeatherDisplay:10.37,2013-12-01 03:48:00,
2013-11-30 22:58:00,31.6,7.1,30.43,ESE,105,5.0,8.0,35,0.00,CLR,,0.00,WeatherDisplay:10.37,2013-12-01 03:58:00,
2013-11-30 23:08:00,31.6,7.1,30.43,ESE,102,6.0,8.0,35,0.00,CLR,,0.00,WeatherDisplay:10.37,2013-12-01 04:08:00,
2013-11-30 23:18:00,31.3,6.8,30.43,ESE,115,6.0,10.0,35,0.00,CLR,,0.00,WeatherDisplay:10.37,2013-12-01 04:18:00,
2013-11-30 23:28:00,31.3,6.8,30.43,ESE,102,6.0,9.0,35,0.00,CLR,,0.00,WeatherDisplay:10.37,2013-12-01 04:28:00,
2013-11-30 23:38:00,31.3,7.4,30.43,ESE,105,5.0,6.0,36,0.00,CLR,,0.00,WeatherDisplay:10.37,2013-12-01 04:38:00,
2013-11-30 23:48:00,32.1,8.7,30.43,SE,137,7.0,12.0,37,0.00,CLR,,0.00,WeatherDisplay:10.37,2013-12-01 04:48:00,
2013-11-30 23:58:00,32.4,8.3,30.43,ESE,116,7.0,12.0,36,0.00,CLR,,0.00,WeatherDisplay:10.37,2013-12-01 04:58:00,